Strona główna
METAR-TAF:

METAR-TAF

Lotnisko :

Port lotniczy Sankt Gallen-Altenrhein

Sankt Gallen, Szwajcaria

Szerokość geograficzna: 47-29-06N, Długość geograficzna: 009-33-43E, wysokość: 398 m

Aktualna obserwacja pogody

Raport powstał 25 minut temu, godzina 01:50 UTC
Wiatr 4 kt od południowo-południowy zachód
Temperatura 6°C
Wilgotność 75%
Ciśnienie 1018 hPa
Widzialność 10 km lub więcej
Brak chmur poniżej 1500 m i brak chmur cumulonimbus

METAR: LSZR 170150Z AUTO 20004KT CAVOK 06/02 Q1018

czas: 03:15 (02:15 UTC)

Prognoza

Raport powstał 11 godziny i 50 minut temu, godzina 14:25 UTC
Prognoza ważna od 16 godzina 15 UTC do 16 godzina 24 UTC
Wiatr 3 kt z kierunków zmiennych
Widzialność 10 km lub więcej
Brak chmur poniżej 1500 m i brak chmur cumulonimbus

TAF: LSZR 161425Z 1615/1624 VRB03KT CAVOK

Obserwacja i prognoza pogody dla ponad 4000 lotnisk (raport METAR i TAF).

Dostępne stacje oznaczono żółtymi i czerwonymi punktami na mapie.

Najedź kursorem aby zobaczyć nazwę stacji.

Kliknij aby zobaczyć obserwacje i prognozy pogody.

Aby zmienić mapę: kliknij na zielony przycisk z czarnym krzyżykiem, aby powiększyć; na zielony przycisk z myślnikiem, aby pomniejszyć; na zielone strzałki, aby przejść do map sąsiednich.


METAR-TAF: